LF7422 weather

Glacier d'Argentière Altiport
Chamonix, Rhône Alpes, France

Public forecast

Using degrees Celsius for public forecast. Weather courtesy of forecast.io.

METAR (pilot weather report)

Closest report is Aosta Airport, 19.7 nm (36.4 km) SE. Retrieved 2019/07/17 17:20 UTC (31 minutes ago):

LIMW 171720Z AUTO 09013KT 9999 NCD 26/14 Q1011

TAF (pilot weather forecast)

Closest forecast is Annecy-Haute-Savoie-Mont Blanc Airport, 37.3 nm (69.1 km) W. Retrieved 2019/07/17 15:00 UTC (3 hours ago):

TAF LFLP 171400Z 1715/1815 24008KT CAVOK BECMG 1718/1721 VRB03KT BECMG 1812/1814 24008KT